createdAt,value
2022-11-03T00:00:20.031Z,101033.75
2022-11-03T00:05:41.775Z,101045.06
2022-11-03T00:10:44.442Z,101022.91
2022-11-03T00:15:50.306Z,101023.72
2022-11-03T00:21:05.174Z,101031.66
2022-11-03T00:26:10.097Z,101016.03
2022-11-03T00:31:14.655Z,101019.94
2022-11-03T00:36:19.483Z,101023.34
2022-11-03T00:41:27.281Z,101025.41
2022-11-03T00:46:35.003Z,101020.84
2022-11-03T00:51:39.018Z,101010.38
2022-11-03T00:56:44.306Z,101002.09
2022-11-03T01:01:47.929Z,100999.44
2022-11-03T01:06:54.310Z,101004.28
2022-11-03T01:12:02.600Z,100998.28
2022-11-03T01:17:07.226Z,100995.63
2022-11-03T01:22:11.411Z,100997.50
2022-11-03T01:27:17.013Z,100990.50
2022-11-03T01:32:19.631Z,100989.78
2022-11-03T01:37:25.932Z,100984.59
2022-11-03T01:42:28.602Z,100955.09
2022-11-03T01:47:33.895Z,100967.94
2022-11-03T01:52:42.198Z,100963.56
2022-11-03T01:57:51.204Z,100943.66
2022-11-03T02:02:54.957Z,100945.28
2022-11-03T02:08:06.391Z,100938.53
2022-11-03T02:13:18.665Z,100940.50
2022-11-03T02:18:26.264Z,100924.19
2022-11-03T02:23:37.999Z,100904.75
2022-11-03T02:28:42.332Z,100903.72
2022-11-03T02:33:51.680Z,100904.63
2022-11-03T02:38:59.871Z,100885.13
2022-11-03T02:44:05.784Z,100862.03
2022-11-03T02:49:08.642Z,100877.50
2022-11-03T02:54:17.375Z,100874.09
2022-11-03T02:59:27.372Z,100862.66
2022-11-03T03:04:36.013Z,100860.31
2022-11-03T03:09:42.905Z,100837.22
2022-11-03T03:14:49.745Z,100823.41
2022-11-03T03:19:59.815Z,100826.00
2022-11-03T03:25:10.025Z,100836.13
2022-11-03T03:30:15.737Z,100825.81
2022-11-03T03:35:21.365Z,100823.69
2022-11-03T03:40:29.661Z,100804.66
2022-11-03T03:45:35.602Z,100792.38
2022-11-03T03:50:41.129Z,100797.88
2022-11-03T03:55:46.579Z,100779.88
2022-11-03T04:00:50.706Z,100811.63
2022-11-03T04:05:54.755Z,100804.16
2022-11-03T04:11:15.005Z,100798.38
2022-11-03T04:16:36.795Z,100787.31
2022-11-03T04:21:57.276Z,100784.56
2022-11-03T04:27:03.587Z,100777.13
2022-11-03T04:32:15.286Z,100781.16
2022-11-03T04:37:18.354Z,100778.59
2022-11-03T04:42:23.155Z,100773.78
2022-11-03T04:47:28.470Z,100775.69
2022-11-03T04:52:31.308Z,100762.34
2022-11-03T04:57:33.896Z,100762.47
2022-11-03T05:02:37.863Z,100773.66
2022-11-03T05:07:40.511Z,100759.06
2022-11-03T05:12:43.534Z,100772.19
2022-11-03T05:17:47.542Z,100770.91
2022-11-03T05:22:50.177Z,100746.97
2022-11-03T05:27:52.806Z,100765.34
2022-11-03T05:32:56.808Z,100766.94
2022-11-03T05:37:59.470Z,100745.97
2022-11-03T05:43:04.170Z,100731.44
2022-11-03T05:48:18.666Z,100729.19
2022-11-03T05:53:28.988Z,100715.00
2022-11-03T05:58:38.463Z,100698.41
2022-11-03T06:03:42.520Z,100712.06
2022-11-03T06:08:46.271Z,100710.94
2022-11-03T06:13:49.071Z,100720.78
2022-11-03T06:18:53.175Z,100705.22
2022-11-03T06:23:56.144Z,100693.28
2022-11-03T06:29:01.162Z,100698.72
2022-11-03T06:34:22.660Z,100720.78
2022-11-03T06:39:25.766Z,100708.13
2022-11-03T06:44:30.298Z,100694.50
2022-11-03T06:49:35.659Z,100707.44
2022-11-03T06:54:39.630Z,100689.75
2022-11-03T06:59:42.216Z,100690.00
2022-11-03T07:04:46.227Z,100693.53
2022-11-03T07:09:48.871Z,100695.00
2022-11-03T07:14:51.484Z,100672.75
2022-11-03T07:19:55.484Z,100677.16
2022-11-03T07:25:03.322Z,100682.75
2022-11-03T07:30:17.032Z,100670.38
2022-11-03T07:36:08.441Z,100665.56
2022-11-03T07:41:00.909Z,100665.38
2022-11-03T07:46:05.149Z,100655.78
2022-11-03T07:51:19.446Z,100643.16
2022-11-03T07:56:24.141Z,100639.38
2022-11-03T08:01:29.707Z,100621.31
2022-11-03T08:06:34.371Z,100625.34
2022-11-03T08:11:36.998Z,100621.00
2022-11-03T08:16:39.857Z,100606.06
2022-11-03T08:21:43.866Z,100603.41
2022-11-03T08:26:46.527Z,100589.78
2022-11-03T08:31:49.095Z,100584.34
2022-11-03T08:36:52.998Z,100564.47
2022-11-03T08:41:55.622Z,100563.34
2022-11-03T08:46:58.236Z,100557.34
2022-11-03T08:52:02.169Z,100524.47
2022-11-03T08:57:04.849Z,100518.38
2022-11-03T09:02:07.565Z,100518.28
2022-11-03T09:07:11.721Z,100515.75
2022-11-03T09:12:14.370Z,100509.69
2022-11-03T09:17:17.033Z,100509.41
2022-11-03T09:22:22.024Z,100490.03
2022-11-03T09:27:24.643Z,100485.22
2022-11-03T09:32:27.524Z,100475.19
2022-11-03T09:37:31.464Z,100472.56
2022-11-03T09:42:35.200Z,100448.03
2022-11-03T09:47:40.507Z,100444.19
2022-11-03T09:52:48.844Z,100438.91
2022-11-03T09:57:55.525Z,100425.19
2022-11-03T10:02:58.141Z,100424.72
2022-11-03T10:08:05.200Z,100400.97
2022-11-03T10:13:12.481Z,100404.03
2022-11-03T10:18:15.880Z,100398.88
2022-11-03T10:23:19.822Z,100407.16
2022-11-03T10:28:23.939Z,100400.34
2022-11-03T10:33:31.790Z,100382.69
2022-11-03T10:38:36.810Z,100369.25
2022-11-03T10:43:40.286Z,100366.44
2022-11-03T10:48:43.024Z,100354.34
2022-11-03T10:53:46.961Z,100341.47
2022-11-03T10:58:49.832Z,100334.44
2022-11-03T11:03:52.569Z,100333.50
2022-11-03T11:09:02.267Z,100326.25
2022-11-03T11:14:23.445Z,100315.69
2022-11-03T11:19:27.521Z,100316.03
2022-11-03T11:24:48.786Z,100294.31
2022-11-03T11:29:52.682Z,100297.16
2022-11-03T11:34:55.256Z,100277.47
2022-11-03T11:39:57.826Z,100286.16
2022-11-03T11:45:03.913Z,100279.19
2022-11-03T11:50:18.526Z,100266.66
2022-11-03T11:55:29.708Z,100246.94
2022-11-03T12:00:35.704Z,100242.19
2022-11-03T12:05:38.546Z,100225.78
2022-11-03T12:10:53.639Z,100223.03
2022-11-03T12:15:58.511Z,100208.84
2022-11-03T12:21:01.675Z,100195.00
2022-11-03T12:26:05.409Z,100172.25
2022-11-03T12:31:09.278Z,100171.38
2022-11-03T12:36:11.930Z,100156.09
2022-11-03T12:41:24.698Z,100157.22
2022-11-03T12:46:28.768Z,100123.44
2022-11-03T12:51:31.465Z,100125.41
2022-11-03T12:56:34.085Z,100126.56
2022-11-03T13:01:38.273Z,100091.19
2022-11-03T13:06:40.817Z,100111.53
2022-11-03T13:12:01.141Z,100103.38
2022-11-03T13:17:05.036Z,100071.19
2022-11-03T13:22:07.640Z,100066.91
2022-11-03T13:27:10.237Z,100036.47
2022-11-03T13:32:14.654Z,100003.50
2022-11-03T13:37:17.125Z,99994.88
2022-11-03T13:42:19.747Z,99990.16
2022-11-03T13:47:34.604Z,99987.72
2022-11-03T13:52:46.331Z,99973.88
2022-11-03T14:08:35.541Z,99944.31
2022-11-03T14:13:38.176Z,99946.78
2022-11-03T14:18:42.166Z,99939.81
2022-11-03T14:23:44.720Z,99936.59
2022-11-03T14:28:47.375Z,99929.13
2022-11-03T14:33:51.301Z,99910.66
2022-11-03T14:38:53.949Z,99880.56
2022-11-03T14:43:56.568Z,99862.56
2022-11-03T14:49:01.707Z,99864.28
2022-11-03T14:54:04.316Z,99871.44
2022-11-03T14:59:07.027Z,99874.13
2022-11-03T15:04:12.111Z,99869.97
2022-11-03T15:09:15.394Z,99860.44
2022-11-03T15:14:18.264Z,99848.66
2022-11-03T15:19:22.209Z,99858.50
2022-11-03T15:29:48.246Z,99840.91
2022-11-03T15:34:52.764Z,99834.78
2022-11-03T15:39:59.519Z,99815.84
2022-11-03T15:45:03.288Z,99813.94
2022-11-03T15:50:08.388Z,99801.41
2022-11-03T15:55:11.787Z,99791.91
2022-11-03T16:00:15.505Z,99792.66
2022-11-03T16:05:24.749Z,99773.28
2022-11-03T16:10:27.623Z,99755.63
2022-11-03T16:15:30.261Z,99753.38
2022-11-03T16:20:34.141Z,99720.41
2022-11-03T16:25:36.793Z,99727.59
2022-11-03T16:30:39.494Z,99708.06
2022-11-03T16:35:43.395Z,99713.22
2022-11-03T16:40:46.160Z,99702.16
2022-11-03T16:45:48.707Z,99690.69
2022-11-03T16:50:56.653Z,99677.44
2022-11-03T16:55:59.511Z,99666.56
2022-11-03T17:01:02.150Z,99659.09
2022-11-03T17:06:06.467Z,99651.13
2022-11-03T17:11:08.979Z,99650.03
2022-11-03T17:16:11.493Z,99632.28
2022-11-03T17:21:15.448Z,99624.03
2022-11-03T17:26:19.535Z,99630.03
2022-11-03T17:31:22.231Z,99611.69
2022-11-03T17:36:26.333Z,99607.16
2022-11-03T17:41:28.944Z,99612.22
2022-11-03T17:46:31.528Z,99610.16
2022-11-03T17:51:35.794Z,99606.88
2022-11-03T17:56:38.582Z,99603.09
2022-11-03T18:01:41.423Z,99599.13
2022-11-03T18:06:46.219Z,99575.53
2022-11-03T18:12:06.694Z,99572.06
2022-11-03T18:17:10.320Z,99567.31
2022-11-03T18:22:14.351Z,99558.91
2022-11-03T18:27:21.320Z,99553.97
2022-11-03T18:32:27.838Z,99543.66
2022-11-03T18:37:34.100Z,99510.41
2022-11-03T18:42:36.643Z,99523.50
2022-11-03T18:47:39.262Z,99519.06
2022-11-03T18:52:48.508Z,99496.44
2022-11-03T18:57:51.352Z,99494.69
2022-11-03T19:02:54.001Z,99481.13
2022-11-03T19:07:58.000Z,99472.56
2022-11-03T19:13:00.625Z,99471.06
2022-11-03T19:18:05.394Z,99469.72
2022-11-03T19:23:10.757Z,99466.56
2022-11-03T19:28:15.678Z,99449.94
2022-11-03T19:33:21.845Z,99446.72
2022-11-03T19:38:25.876Z,99431.63
2022-11-03T19:43:34.222Z,99409.72
2022-11-03T19:48:37.412Z,99408.44
2022-11-03T19:53:46.905Z,99427.56
2022-11-03T19:58:49.743Z,99402.53
2022-11-03T20:03:52.392Z,99394.00
2022-11-03T20:08:57.350Z,99371.47
2022-11-03T20:14:00.318Z,99372.69
2022-11-03T20:19:03.237Z,99361.69
2022-11-03T20:24:07.922Z,99381.09
2022-11-03T20:29:13.397Z,99379.63
2022-11-03T20:34:16.789Z,99377.81
2022-11-03T20:39:20.939Z,99365.66
2022-11-03T20:44:23.904Z,99348.13
2022-11-03T20:49:26.454Z,99343.88
2022-11-03T20:54:31.330Z,99347.28
2022-11-03T20:59:37.703Z,99340.84
2022-11-03T21:04:42.480Z,99349.50
2022-11-03T21:09:46.544Z,99352.00
2022-11-03T21:15:03.033Z,99353.34
2022-11-03T21:20:11.548Z,99350.66
2022-11-03T21:25:17.924Z,99356.78
2022-11-03T21:30:20.818Z,99359.03
2022-11-03T21:35:23.811Z,99366.25
2022-11-03T21:40:27.909Z,99351.03
2022-11-03T21:45:30.512Z,99349.47
2022-11-03T21:50:33.129Z,99337.22
2022-11-03T21:55:37.070Z,99333.91
2022-11-03T22:00:39.694Z,99326.72
2022-11-03T22:05:42.225Z,99324.19
2022-11-03T22:10:46.258Z,99308.41
2022-11-03T22:16:06.778Z,99299.47
2022-11-03T22:21:35.484Z,99296.41
2022-11-03T22:26:59.445Z,99278.19
2022-11-03T22:32:02.056Z,99263.06
2022-11-03T22:37:04.739Z,99260.75
2022-11-03T22:42:28.899Z,99238.34
2022-11-03T22:47:31.540Z,99265.75
2022-11-03T22:52:34.090Z,99267.75
2022-11-03T22:57:37.993Z,99262.16
2022-11-03T23:02:40.599Z,99274.56
2022-11-03T23:07:43.356Z,99287.34
2022-11-03T23:12:47.287Z,99281.59
2022-11-03T23:18:07.825Z,99278.19
2022-11-03T23:23:30.531Z,99269.78
2022-11-03T23:28:34.425Z,99262.09
2022-11-03T23:33:36.962Z,99259.88
2022-11-03T23:38:40.283Z,99248.16
2022-11-03T23:43:44.829Z,99240.25
2022-11-03T23:48:47.969Z,99231.38
2022-11-03T23:53:51.586Z,99215.59
2022-11-03T23:58:55.610Z,99216.84
